createdAt,value
2023-01-19T00:00:49.511Z,4.40
2023-01-19T00:03:16.341Z,4.68
2023-01-19T00:05:43.857Z,3.88
2023-01-19T00:08:17.624Z,4.35
2023-01-19T00:10:50.891Z,4.95
2023-01-19T00:13:17.744Z,4.32
2023-01-19T00:15:45.319Z,4.95
2023-01-19T00:18:12.052Z,5.47
2023-01-19T00:20:42.045Z,4.43
2023-01-19T00:23:09.367Z,4.95
2023-01-19T00:25:42.200Z,3.85
2023-01-19T00:28:10.278Z,4.80
2023-01-19T00:30:37.507Z,4.25
2023-01-19T00:33:04.345Z,4.32
2023-01-19T00:35:31.301Z,4.43
2023-01-19T00:37:58.992Z,4.78
2023-01-19T00:40:25.749Z,4.13
2023-01-19T00:42:52.548Z,4.40
2023-01-19T00:45:22.055Z,3.83
2023-01-19T00:47:50.183Z,4.53
2023-01-19T00:50:17.301Z,4.55
2023-01-19T00:52:45.473Z,4.65
2023-01-19T00:55:14.240Z,3.83
2023-01-19T00:57:41.293Z,4.07
2023-01-19T01:00:11.873Z,4.63
2023-01-19T01:02:39.917Z,4.95
2023-01-19T01:05:07.397Z,4.35
2023-01-19T01:07:40.696Z,4.28
2023-01-19T01:10:27.929Z,4.25
2023-01-19T01:13:20.554Z,4.18
2023-01-19T01:15:41.837Z,5.20
2023-01-19T01:18:08.569Z,4.40
2023-01-19T01:20:37.364Z,5.05
2023-01-19T01:23:04.298Z,5.03
2023-01-19T01:25:31.485Z,4.03
2023-01-19T01:27:58.047Z,5.18
2023-01-19T01:30:24.720Z,4.70
2023-01-19T01:32:51.282Z,4.22
2023-01-19T01:35:18.114Z,5.78
2023-01-19T01:37:44.744Z,5.32
2023-01-19T01:40:14.133Z,4.60
2023-01-19T01:42:42.326Z,5.18
2023-01-19T01:45:40.839Z,4.60
2023-01-19T01:48:13.229Z,5.07
2023-01-19T01:51:11.080Z,4.85
2023-01-19T01:53:39.413Z,4.93
2023-01-19T01:56:10.013Z,5.75
2023-01-19T01:58:37.735Z,5.22
2023-01-19T02:01:24.590Z,5.72
2023-01-19T02:03:51.848Z,4.40
2023-01-19T02:06:18.489Z,4.97
2023-01-19T02:09:12.125Z,5.00
2023-01-19T02:11:57.902Z,4.70
2023-01-19T02:16:51.184Z,4.80
2023-01-19T02:19:37.552Z,5.07
2023-01-19T02:22:11.788Z,5.10
2023-01-19T02:24:38.509Z,6.28
2023-01-19T02:27:05.334Z,5.53
2023-01-19T02:29:32.691Z,5.57
2023-01-19T02:31:59.761Z,5.30
2023-01-19T02:34:26.555Z,5.00
2023-01-19T02:36:56.455Z,5.28
2023-01-19T02:39:45.232Z,5.25
2023-01-19T02:42:19.345Z,5.78
2023-01-19T02:44:49.009Z,5.30
2023-01-19T02:47:16.073Z,4.72
2023-01-19T02:49:42.621Z,4.40
2023-01-19T02:52:17.231Z,4.22
2023-01-19T02:55:05.807Z,5.18
2023-01-19T02:57:32.352Z,5.25
2023-01-19T03:00:21.126Z,4.95
2023-01-19T03:02:57.846Z,5.18
2023-01-19T03:05:48.967Z,5.07
2023-01-19T03:08:35.725Z,5.47
2023-01-19T03:11:09.714Z,5.35
2023-01-19T03:13:42.664Z,4.75
2023-01-19T03:16:36.469Z,4.63
2023-01-19T03:19:10.729Z,4.90
2023-01-19T03:21:39.710Z,5.28
2023-01-19T03:24:10.412Z,4.75
2023-01-19T03:26:47.840Z,4.45
2023-01-19T03:29:17.373Z,3.85
2023-01-19T03:31:47.680Z,4.68
2023-01-19T03:34:16.922Z,5.22
2023-01-19T03:36:49.015Z,5.10
2023-01-19T03:39:21.450Z,4.40
2023-01-19T03:41:49.822Z,4.45
2023-01-19T03:44:16.996Z,4.25
2023-01-19T03:46:45.931Z,4.35
2023-01-19T03:49:12.553Z,4.10
2023-01-19T03:51:39.680Z,3.85
2023-01-19T03:54:07.631Z,5.25
2023-01-19T03:56:34.267Z,4.38
2023-01-19T03:59:00.863Z,4.78
2023-01-19T04:01:27.766Z,5.10
2023-01-19T04:03:54.547Z,5.22
2023-01-19T04:06:21.360Z,4.45
2023-01-19T04:08:49.846Z,5.35
2023-01-19T04:11:16.820Z,4.68
2023-01-19T04:13:44.671Z,4.97
2023-01-19T04:16:12.157Z,5.80
2023-01-19T04:18:40.467Z,4.60
2023-01-19T04:21:07.892Z,4.78
2023-01-19T04:23:34.883Z,3.80
2023-01-19T04:26:04.131Z,3.97
2023-01-19T04:28:31.730Z,5.10
2023-01-19T04:30:58.618Z,4.63
2023-01-19T04:33:27.681Z,4.03
2023-01-19T04:35:55.965Z,4.43
2023-01-19T04:38:23.935Z,3.58
2023-01-19T04:40:52.540Z,4.60
2023-01-19T04:43:23.062Z,4.28
2023-01-19T04:45:50.696Z,3.92
2023-01-19T04:48:18.486Z,4.25
2023-01-19T04:50:45.496Z,4.80
2023-01-19T04:53:13.569Z,4.22
2023-01-19T04:55:40.589Z,4.30
2023-01-19T04:58:07.160Z,3.70
2023-01-19T05:00:33.806Z,3.92
2023-01-19T05:03:01.555Z,3.05
2023-01-19T05:05:28.742Z,4.20
2023-01-19T05:07:55.423Z,3.40
2023-01-19T05:10:22.005Z,3.50
2023-01-19T05:12:48.637Z,4.18
2023-01-19T05:15:15.267Z,3.60
2023-01-19T05:17:42.014Z,3.83
2023-01-19T05:20:11.075Z,3.88
2023-01-19T05:22:39.090Z,3.47
2023-01-19T05:25:08.689Z,3.80
2023-01-19T05:27:36.720Z,4.00
2023-01-19T05:30:05.030Z,3.42
2023-01-19T05:32:31.615Z,2.85
2023-01-19T05:34:58.289Z,3.17
2023-01-19T05:37:24.898Z,4.03
2023-01-19T05:39:51.783Z,4.07
2023-01-19T05:42:18.321Z,3.83
2023-01-19T05:44:44.939Z,3.38
2023-01-19T05:47:11.735Z,3.08
2023-01-19T05:49:38.393Z,3.55
2023-01-19T05:52:04.919Z,4.43
2023-01-19T05:54:31.455Z,3.20
2023-01-19T05:56:58.179Z,3.63
2023-01-19T05:59:24.783Z,3.53
2023-01-19T06:01:52.506Z,3.22
2023-01-19T06:04:20.129Z,2.83
2023-01-19T06:06:50.713Z,3.40
2023-01-19T06:09:17.815Z,3.35
2023-01-19T06:11:45.474Z,3.67
2023-01-19T06:14:12.486Z,3.60
2023-01-19T06:16:39.810Z,3.72
2023-01-19T06:19:06.807Z,3.58
2023-01-19T06:21:34.276Z,4.25
2023-01-19T06:24:01.160Z,4.03
2023-01-19T06:26:27.739Z,4.38
2023-01-19T06:28:54.378Z,3.97
2023-01-19T06:31:21.177Z,3.35
2023-01-19T06:33:48.025Z,3.88
2023-01-19T06:36:14.617Z,2.58
2023-01-19T06:38:41.236Z,3.75
2023-01-19T06:41:07.791Z,3.65
2023-01-19T06:43:34.433Z,3.90
2023-01-19T06:46:01.146Z,3.58
2023-01-19T06:48:28.069Z,3.67
2023-01-19T06:50:54.895Z,4.60
2023-01-19T06:53:22.339Z,3.97
2023-01-19T06:55:48.985Z,4.10
2023-01-19T06:58:16.021Z,4.15
2023-01-19T07:00:43.055Z,3.60
2023-01-19T07:03:18.639Z,3.33
2023-01-19T07:05:45.235Z,3.63
2023-01-19T07:08:11.862Z,3.60
2023-01-19T07:11:25.245Z,4.03
2023-01-19T07:13:25.020Z,3.78
2023-01-19T07:15:51.615Z,3.72
2023-01-19T07:18:18.293Z,4.30
2023-01-19T07:20:46.695Z,3.65
2023-01-19T07:23:13.250Z,3.65
2023-01-19T07:25:40.036Z,4.28
2023-01-19T07:28:06.803Z,4.60
2023-01-19T07:30:33.484Z,3.97
2023-01-19T07:33:00.510Z,4.95
2023-01-19T07:35:27.324Z,3.95
2023-01-19T07:37:54.063Z,4.05
2023-01-19T07:40:22.161Z,4.68
2023-01-19T07:42:51.873Z,4.18
2023-01-19T07:45:20.504Z,3.35
2023-01-19T07:47:48.839Z,4.10
2023-01-19T07:50:17.033Z,3.08
2023-01-19T07:52:44.627Z,3.28
2023-01-19T07:55:11.179Z,3.45
2023-01-19T07:57:37.848Z,2.50
2023-01-19T08:00:04.988Z,2.35
2023-01-19T08:02:39.121Z,2.13
2023-01-19T08:05:06.009Z,2.40
2023-01-19T08:07:34.539Z,2.97
2023-01-19T08:10:01.051Z,2.38
2023-01-19T08:12:27.681Z,3.00
2023-01-19T08:14:54.332Z,3.70
2023-01-19T08:17:20.939Z,2.63
2023-01-19T08:19:47.442Z,2.70
2023-01-19T08:22:14.230Z,2.55
2023-01-19T08:24:40.732Z,2.75
2023-01-19T08:27:09.697Z,2.25
2023-01-19T08:29:37.103Z,3.08
2023-01-19T08:32:04.607Z,2.47
2023-01-19T08:34:31.860Z,3.42
2023-01-19T08:36:59.427Z,2.88
2023-01-19T08:39:27.243Z,3.60
2023-01-19T08:41:54.913Z,3.33
2023-01-19T08:44:21.693Z,3.22
2023-01-19T08:46:48.304Z,2.95
2023-01-19T08:49:15.692Z,4.15
2023-01-19T08:51:42.273Z,3.33
2023-01-19T08:54:09.394Z,3.58
2023-01-19T08:56:36.693Z,2.75
2023-01-19T08:59:09.906Z,3.53
2023-01-19T09:01:37.352Z,4.15
2023-01-19T09:04:04.395Z,4.30
2023-01-19T09:06:30.987Z,4.10
2023-01-19T09:08:57.637Z,2.78
2023-01-19T09:11:24.310Z,3.92
2023-01-19T09:13:50.818Z,4.40
2023-01-19T09:16:17.467Z,4.28
2023-01-19T09:18:45.665Z,3.70
2023-01-19T09:21:12.339Z,4.28
2023-01-19T09:23:38.828Z,3.95
2023-01-19T09:26:06.157Z,4.93
2023-01-19T09:28:33.061Z,4.03
2023-01-19T09:31:00.034Z,4.63
2023-01-19T09:33:26.625Z,4.03
2023-01-19T09:35:53.302Z,4.80
2023-01-19T09:38:20.380Z,4.05
2023-01-19T09:40:55.901Z,4.78
2023-01-19T09:43:37.336Z,4.50
2023-01-19T09:46:15.148Z,5.45
2023-01-19T09:48:52.290Z,4.20
2023-01-19T09:51:22.900Z,5.65
2023-01-19T09:53:56.343Z,5.13
2023-01-19T09:56:23.888Z,4.97
2023-01-19T09:58:51.575Z,4.40
2023-01-19T10:01:38.481Z,4.95
2023-01-19T10:04:31.913Z,5.75
2023-01-19T10:07:44.184Z,4.88
2023-01-19T10:10:21.507Z,4.55
2023-01-19T10:13:11.390Z,4.60
2023-01-19T10:16:00.955Z,5.20
2023-01-19T10:18:35.712Z,5.00
2023-01-19T10:21:10.429Z,4.97
2023-01-19T10:23:43.642Z,4.97
2023-01-19T10:26:16.775Z,4.32
2023-01-19T10:28:46.873Z,5.57
2023-01-19T10:31:16.898Z,4.55
2023-01-19T10:33:43.496Z,4.47
2023-01-19T10:36:17.671Z,5.13
2023-01-19T10:38:45.084Z,4.63
2023-01-19T10:41:22.144Z,5.25
2023-01-19T10:43:49.425Z,4.78
2023-01-19T10:46:33.921Z,5.50
2023-01-19T10:49:00.805Z,4.72
2023-01-19T10:51:28.653Z,4.80
2023-01-19T10:54:02.972Z,4.38
2023-01-19T10:56:35.907Z,4.47
2023-01-19T10:59:06.550Z,5.40
2023-01-19T11:01:36.931Z,4.90
2023-01-19T11:04:26.907Z,5.60
2023-01-19T11:07:13.048Z,4.68
2023-01-19T11:09:39.577Z,4.72
2023-01-19T11:12:19.790Z,5.70
2023-01-19T11:14:47.534Z,4.88
2023-01-19T11:17:25.169Z,6.43
2023-01-19T11:19:57.868Z,5.43
2023-01-19T11:22:33.014Z,5.88
2023-01-19T11:25:02.026Z,5.60
2023-01-19T11:27:30.940Z,6.10
2023-01-19T11:30:17.672Z,6.65
2023-01-19T11:32:46.573Z,6.18
2023-01-19T11:35:36.837Z,6.35
2023-01-19T11:38:12.147Z,5.43
2023-01-19T11:43:05.765Z,6.03
2023-01-19T11:45:34.498Z,8.25
2023-01-19T11:48:05.773Z,5.97
2023-01-19T11:50:41.490Z,5.03
2023-01-19T11:53:28.121Z,7.50
2023-01-19T11:56:04.654Z,6.15
2023-01-19T11:58:33.156Z,7.45
2023-01-19T12:01:10.964Z,5.45
2023-01-19T12:03:43.119Z,5.50
2023-01-19T12:06:18.163Z,5.63
2023-01-19T12:08:49.967Z,6.35
2023-01-19T12:11:21.506Z,6.10
2023-01-19T12:13:49.177Z,6.03
2023-01-19T12:16:26.275Z,5.88
2023-01-19T12:19:00.465Z,6.25
2023-01-19T12:21:27.250Z,6.93
2023-01-19T12:24:17.852Z,6.85
2023-01-19T12:26:57.056Z,6.97
2023-01-19T12:29:35.714Z,7.15
2023-01-19T12:32:14.558Z,7.55
2023-01-19T12:34:51.940Z,7.43
2023-01-19T12:37:28.781Z,8.07
2023-01-19T12:39:57.811Z,7.68
2023-01-19T12:42:25.843Z,7.15
2023-01-19T12:45:04.625Z,7.95
2023-01-19T12:47:31.669Z,7.28
2023-01-19T12:50:05.741Z,8.35
2023-01-19T12:52:51.329Z,7.93
2023-01-19T12:55:23.109Z,7.93
2023-01-19T12:58:07.173Z,6.88
2023-01-19T13:00:39.903Z,7.68
2023-01-19T13:03:18.515Z,8.30
2023-01-19T13:05:53.119Z,8.60
2023-01-19T13:08:22.404Z,10.02
2023-01-19T13:10:54.826Z,7.35
2023-01-19T13:13:31.554Z,7.97
2023-01-19T13:16:22.304Z,9.52
2023-01-19T13:18:55.922Z,10.35
2023-01-19T13:21:49.562Z,9.02
2023-01-19T13:24:19.397Z,7.63
2023-01-19T13:26:49.022Z,8.23
2023-01-19T13:29:22.650Z,7.20
2023-01-19T13:31:49.567Z,8.20
2023-01-19T13:34:22.774Z,9.52
2023-01-19T13:36:59.242Z,8.48
2023-01-19T13:39:36.984Z,9.68
2023-01-19T13:42:18.431Z,8.95
2023-01-19T13:44:52.327Z,9.20
2023-01-19T13:47:23.778Z,9.38
2023-01-19T13:49:55.780Z,9.82
2023-01-19T13:52:27.519Z,9.27
2023-01-19T13:54:59.870Z,9.43
2023-01-19T13:57:33.648Z,10.57
2023-01-19T14:00:19.462Z,10.13
2023-01-19T14:05:37.605Z,10.00
2023-01-19T14:08:12.303Z,10.52
2023-01-19T14:10:56.179Z,9.90
2023-01-19T14:13:25.116Z,10.38
2023-01-19T14:15:55.260Z,9.40
2023-01-19T14:18:30.010Z,9.27
2023-01-19T14:20:58.366Z,8.50
2023-01-19T14:23:40.299Z,8.60
2023-01-19T14:26:46.655Z,9.70
2023-01-19T14:29:21.510Z,9.00
2023-01-19T14:32:04.915Z,9.82
2023-01-19T14:34:42.559Z,11.38
2023-01-19T14:37:22.851Z,9.45
2023-01-19T14:40:01.583Z,10.20
2023-01-19T14:42:37.457Z,7.97
2023-01-19T14:45:16.776Z,9.60
2023-01-19T14:47:45.583Z,8.63
2023-01-19T14:50:29.400Z,9.15
2023-01-19T14:53:04.890Z,8.52
2023-01-19T14:55:55.435Z,8.15
2023-01-19T14:58:24.941Z,7.53
2023-01-19T15:00:55.652Z,8.27
2023-01-19T15:03:26.868Z,8.73
2023-01-19T15:06:03.532Z,8.30
2023-01-19T15:08:33.489Z,7.65
2023-01-19T15:11:28.526Z,7.38
2023-01-19T15:13:55.579Z,10.07
2023-01-19T15:16:23.572Z,8.02
2023-01-19T15:18:50.348Z,7.70
2023-01-19T15:21:23.412Z,6.93
2023-01-19T15:23:50.256Z,6.82
2023-01-19T15:26:22.081Z,6.47
2023-01-19T15:28:49.376Z,7.18
2023-01-19T15:31:18.569Z,7.05
2023-01-19T15:33:45.898Z,7.05
2023-01-19T15:36:15.293Z,6.82
2023-01-19T15:38:43.567Z,6.35
2023-01-19T15:41:26.580Z,6.55
2023-01-19T15:43:53.968Z,7.03
2023-01-19T15:46:20.986Z,5.55
2023-01-19T15:48:48.339Z,7.78
2023-01-19T15:51:17.824Z,6.45
2023-01-19T15:53:45.128Z,7.20
2023-01-19T15:56:19.520Z,7.45
2023-01-19T15:58:46.364Z,7.40
2023-01-19T16:01:15.084Z,6.68
2023-01-19T16:03:42.527Z,7.55
2023-01-19T16:06:10.159Z,6.82
2023-01-19T16:08:37.486Z,7.03
2023-01-19T16:11:10.337Z,7.47
2023-01-19T16:13:37.717Z,6.30
2023-01-19T16:16:06.648Z,5.95
2023-01-19T16:18:33.738Z,6.60
2023-01-19T16:21:01.148Z,7.47
2023-01-19T16:23:27.724Z,6.70
2023-01-19T16:26:07.646Z,7.40
2023-01-19T16:28:35.859Z,7.72
2023-01-19T16:31:02.936Z,8.30
2023-01-19T16:33:29.981Z,6.80
2023-01-19T16:35:56.641Z,7.38
2023-01-19T16:38:23.363Z,6.55
2023-01-19T16:40:50.042Z,7.32
2023-01-19T16:43:18.156Z,6.93
2023-01-19T16:45:58.681Z,7.63
2023-01-19T16:48:25.992Z,7.18
2023-01-19T16:51:04.670Z,6.63
2023-01-19T16:53:34.664Z,7.20
2023-01-19T16:56:06.497Z,7.10
2023-01-19T16:58:33.185Z,6.13
2023-01-19T17:00:59.852Z,6.85
2023-01-19T17:03:26.976Z,6.90
2023-01-19T17:05:53.524Z,7.13
2023-01-19T17:08:20.596Z,6.88
2023-01-19T17:10:47.928Z,6.68
2023-01-19T17:13:14.758Z,7.03
2023-01-19T17:15:41.473Z,7.05
2023-01-19T17:18:09.965Z,7.10
2023-01-19T17:20:36.648Z,7.78
2023-01-19T17:23:03.414Z,6.35
2023-01-19T17:25:30.068Z,7.50
2023-01-19T17:27:58.837Z,7.65
2023-01-19T17:30:25.582Z,7.57
2023-01-19T17:32:52.689Z,7.22
2023-01-19T17:35:19.287Z,7.22
2023-01-19T17:37:46.005Z,6.63
2023-01-19T17:40:12.762Z,7.78
2023-01-19T17:42:41.798Z,7.47
2023-01-19T17:45:10.798Z,6.70
2023-01-19T17:47:38.476Z,7.35
2023-01-19T17:50:05.472Z,7.47
2023-01-19T17:52:32.076Z,6.85
2023-01-19T17:54:58.613Z,6.63
2023-01-19T17:57:25.387Z,7.82
2023-01-19T17:59:51.968Z,8.32
2023-01-19T18:02:19.037Z,8.48
2023-01-19T18:04:45.710Z,8.18
2023-01-19T18:07:12.330Z,7.32
2023-01-19T18:09:38.817Z,7.22
2023-01-19T18:12:05.462Z,8.07
2023-01-19T18:14:31.936Z,7.80
2023-01-19T18:16:58.512Z,7.97
2023-01-19T18:19:25.192Z,7.45
2023-01-19T18:21:51.905Z,8.95
2023-01-19T18:24:18.586Z,8.65
2023-01-19T18:26:45.267Z,7.97
2023-01-19T18:29:11.814Z,8.73
2023-01-19T18:31:38.399Z,8.95
2023-01-19T18:34:04.956Z,7.70
2023-01-19T18:36:32.535Z,7.95
2023-01-19T18:39:02.277Z,7.85
2023-01-19T18:41:29.954Z,7.88
2023-01-19T18:43:58.708Z,8.65
2023-01-19T18:46:25.944Z,8.75
2023-01-19T18:48:52.927Z,7.75
2023-01-19T18:51:19.919Z,7.38
2023-01-19T18:53:46.628Z,9.13
2023-01-19T18:56:15.683Z,7.75
2023-01-19T18:58:43.282Z,8.57
2023-01-19T19:01:39.411Z,7.22
2023-01-19T19:04:07.067Z,7.60
2023-01-19T19:06:34.367Z,8.77
2023-01-19T19:09:01.018Z,7.55
2023-01-19T19:11:28.033Z,8.65
2023-01-19T19:14:00.283Z,7.43
2023-01-19T19:16:28.401Z,8.43
2023-01-19T19:18:55.621Z,8.85
2023-01-19T19:21:25.142Z,7.05
2023-01-19T19:23:56.462Z,7.85
2023-01-19T19:26:24.289Z,8.30
2023-01-19T19:28:50.937Z,8.15
2023-01-19T19:31:21.140Z,7.63
2023-01-19T19:33:48.964Z,8.32
2023-01-19T19:36:15.552Z,8.10
2023-01-19T19:38:44.264Z,8.38
2023-01-19T19:41:16.730Z,8.38
2023-01-19T19:43:43.551Z,8.30
2023-01-19T19:46:13.786Z,8.82
2023-01-19T19:48:40.465Z,9.10
2023-01-19T19:51:18.046Z,8.63
2023-01-19T19:53:46.135Z,10.45
2023-01-19T19:56:13.404Z,11.10
2023-01-19T19:58:41.895Z,10.02
2023-01-19T20:01:11.157Z,11.68
2023-01-19T20:03:38.578Z,10.18
2023-01-19T20:06:10.452Z,9.93
2023-01-19T20:08:37.089Z,9.60
2023-01-19T20:11:09.236Z,10.90
2023-01-19T20:13:38.328Z,8.65
2023-01-19T20:16:09.983Z,9.80
2023-01-19T20:18:38.713Z,9.90
2023-01-19T20:21:12.968Z,9.70
2023-01-19T20:23:40.557Z,10.52
2023-01-19T20:26:09.128Z,10.15
2023-01-19T20:28:37.235Z,9.70
2023-01-19T20:31:19.256Z,9.65
2023-01-19T20:33:47.901Z,10.25
2023-01-19T20:36:15.181Z,10.52
2023-01-19T20:38:42.401Z,11.63
2023-01-19T20:41:10.437Z,9.68
2023-01-19T20:43:37.423Z,10.07
2023-01-19T20:46:04.329Z,10.63
2023-01-19T20:48:31.299Z,11.57
2023-01-19T20:51:09.073Z,10.77
2023-01-19T20:53:36.917Z,11.15
2023-01-19T20:56:09.889Z,10.30
2023-01-19T20:58:37.415Z,10.63
2023-01-19T21:01:14.430Z,11.75
2023-01-19T21:03:42.274Z,9.00
2023-01-19T21:06:09.622Z,10.43
2023-01-19T21:08:36.665Z,11.00
2023-01-19T21:11:04.136Z,11.02
2023-01-19T21:13:31.621Z,9.30
2023-01-19T21:15:58.801Z,10.20
2023-01-19T21:18:27.738Z,10.40
2023-01-19T21:20:55.255Z,9.45
2023-01-19T21:23:22.132Z,9.60
2023-01-19T21:25:54.194Z,10.90
2023-01-19T21:28:22.610Z,10.60
2023-01-19T21:30:50.325Z,12.35
2023-01-19T21:33:17.477Z,11.55
2023-01-19T21:35:52.046Z,10.65
2023-01-19T21:38:19.667Z,11.50
2023-01-19T21:40:46.541Z,10.85
2023-01-19T21:43:13.721Z,10.23
2023-01-19T21:45:42.988Z,9.63
2023-01-19T21:48:09.997Z,10.32
2023-01-19T21:50:36.559Z,9.63
2023-01-19T21:53:05.866Z,9.15
2023-01-19T21:55:33.126Z,11.25
2023-01-19T21:57:59.671Z,9.95
2023-01-19T22:00:29.390Z,9.60
2023-01-19T22:03:03.816Z,10.18
2023-01-19T22:05:36.525Z,10.20
2023-01-19T22:08:04.822Z,9.85
2023-01-19T22:10:31.531Z,8.90
2023-01-19T22:12:58.141Z,11.20
2023-01-19T22:15:24.787Z,9.50
2023-01-19T22:17:51.523Z,9.82
2023-01-19T22:20:18.197Z,10.70
2023-01-19T22:22:45.203Z,9.70
2023-01-19T22:25:12.420Z,10.70
2023-01-19T22:27:39.252Z,10.00
2023-01-19T22:30:06.570Z,9.38
2023-01-19T22:32:33.157Z,9.93
2023-01-19T22:34:59.669Z,9.90
2023-01-19T22:37:26.236Z,8.70
2023-01-19T22:39:53.219Z,9.90
2023-01-19T22:42:19.849Z,9.20
2023-01-19T22:44:46.816Z,10.30
2023-01-19T22:47:13.898Z,8.55
2023-01-19T22:49:40.690Z,8.93
2023-01-19T22:52:07.521Z,8.50
2023-01-19T22:54:34.211Z,9.20
2023-01-19T22:57:00.862Z,10.23
2023-01-19T22:59:27.564Z,8.65
2023-01-19T23:01:54.432Z,9.10
2023-01-19T23:04:21.115Z,9.45
2023-01-19T23:06:50.337Z,8.85
2023-01-19T23:09:18.288Z,9.02
2023-01-19T23:11:51.166Z,9.23
2023-01-19T23:14:20.971Z,8.73
2023-01-19T23:16:47.787Z,9.90
2023-01-19T23:19:16.943Z,9.02
2023-01-19T23:21:44.467Z,10.38
2023-01-19T23:24:11.646Z,10.88
2023-01-19T23:26:38.535Z,9.70
2023-01-19T23:29:07.988Z,10.20
2023-01-19T23:31:36.881Z,11.60
2023-01-19T23:34:06.355Z,10.45
2023-01-19T23:36:35.063Z,10.10
2023-01-19T23:39:05.056Z,10.95
2023-01-19T23:41:34.472Z,12.57
2023-01-19T23:44:01.339Z,9.40
2023-01-19T23:46:28.611Z,11.02
2023-01-19T23:48:55.467Z,11.63
2023-01-19T23:51:24.531Z,11.98
2023-01-19T23:53:51.811Z,10.85
2023-01-19T23:56:22.799Z,11.32
2023-01-19T23:59:07.486Z,11.75
